createdAt,value
2022-09-02T00:00:20.685Z,98469.13
2022-09-02T00:03:27.001Z,98466.53
2022-09-02T00:06:34.395Z,98463.50
2022-09-02T00:09:40.813Z,98457.78
2022-09-02T00:12:48.988Z,98464.16
2022-09-02T00:15:55.065Z,98455.28
2022-09-02T00:19:00.901Z,98453.06
2022-09-02T00:22:07.541Z,98459.38
2022-09-02T00:25:14.604Z,98456.34
2022-09-02T00:28:25.915Z,98455.00
2022-09-02T00:31:33.916Z,98452.69
2022-09-02T00:34:39.479Z,98452.41
2022-09-02T00:37:45.293Z,98453.47
2022-09-02T00:40:54.188Z,98450.28
2022-09-02T00:44:06.520Z,98446.56
2022-09-02T00:47:12.246Z,98448.94
2022-09-02T00:50:26.036Z,98448.88
2022-09-02T00:53:33.813Z,98439.53
2022-09-02T00:56:43.425Z,98441.66
2022-09-02T01:00:13.919Z,98431.22
2022-09-02T01:03:24.855Z,98443.06
2022-09-02T01:06:33.632Z,98440.94
2022-09-02T01:09:39.544Z,98441.75
2022-09-02T01:12:45.836Z,98440.75
2022-09-02T01:16:01.596Z,98431.34
2022-09-02T01:19:23.205Z,98426.84
2022-09-02T01:22:35.842Z,98436.84
2022-09-02T01:25:41.607Z,98437.88
2022-09-02T01:28:47.494Z,98436.91
2022-09-02T01:31:56.152Z,98445.38
2022-09-02T01:35:02.283Z,98434.91
2022-09-02T01:38:12.189Z,98440.09
2022-09-02T01:41:17.830Z,98440.09
2022-09-02T01:44:25.281Z,98443.94
2022-09-02T01:47:32.148Z,98445.25
2022-09-02T01:50:45.604Z,98442.06
2022-09-02T01:53:58.784Z,98439.88
2022-09-02T01:57:04.832Z,98433.88
2022-09-02T02:00:20.031Z,98430.44
2022-09-02T02:03:26.197Z,98433.81
2022-09-02T02:06:36.561Z,98432.81
2022-09-02T02:09:46.427Z,98436.34
2022-09-02T02:12:54.915Z,98424.00
2022-09-02T02:16:09.398Z,98424.19
2022-09-02T02:19:19.776Z,98423.25
2022-09-02T02:22:27.436Z,98420.41
2022-09-02T02:25:36.566Z,98415.56
2022-09-02T02:28:42.461Z,98416.91
2022-09-02T02:31:54.820Z,98421.63
2022-09-02T02:35:04.622Z,98421.78
2022-09-02T02:38:14.317Z,98430.09
2022-09-02T02:41:24.396Z,98428.09
2022-09-02T02:44:30.130Z,98427.38
2022-09-02T02:47:35.766Z,98423.44
2022-09-02T02:50:42.553Z,98421.94
2022-09-02T02:53:59.000Z,98424.41
2022-09-02T02:57:14.798Z,98421.75
2022-09-02T03:00:27.287Z,98419.09
2022-09-02T03:03:33.615Z,98418.78
2022-09-02T03:06:40.149Z,98418.84
2022-09-02T03:09:46.097Z,98412.06
2022-09-02T03:12:54.539Z,98408.56
2022-09-02T03:16:00.322Z,98405.09
2022-09-02T03:19:08.694Z,98404.06
2022-09-02T03:22:14.429Z,98406.44
2022-09-02T03:25:23.886Z,98412.81
2022-09-02T03:28:38.017Z,98407.81
2022-09-02T03:31:46.321Z,98407.50
2022-09-02T03:34:52.549Z,98414.34
2022-09-02T03:37:59.663Z,98405.34
2022-09-02T03:41:05.333Z,98415.34
2022-09-02T03:44:16.775Z,98412.00
2022-09-02T03:47:29.151Z,98420.59
2022-09-02T03:50:42.318Z,98421.78
2022-09-02T03:53:51.820Z,98418.91
2022-09-02T03:56:57.548Z,98423.22
2022-09-02T04:00:16.219Z,98421.91
2022-09-02T04:03:25.228Z,98428.53
2022-09-02T04:06:32.700Z,98423.03
2022-09-02T04:09:46.458Z,98426.53
2022-09-02T04:12:53.194Z,98425.03
2022-09-02T04:16:11.291Z,98422.56
2022-09-02T04:19:17.096Z,98422.22
2022-09-02T04:22:28.556Z,98431.34
2022-09-02T04:25:36.730Z,98419.53
2022-09-02T04:28:43.113Z,98416.41
2022-09-02T04:31:51.332Z,98419.69
2022-09-02T04:34:57.099Z,98420.72
2022-09-02T04:38:03.700Z,98419.06
2022-09-02T04:41:12.424Z,98422.22
2022-09-02T04:44:18.560Z,98430.03
2022-09-02T04:47:29.119Z,98423.69
2022-09-02T04:50:35.525Z,98423.19
2022-09-02T04:53:42.712Z,98431.13
2022-09-02T04:56:48.525Z,98424.47
2022-09-02T04:59:55.158Z,98423.81
2022-09-02T05:03:05.569Z,98425.13
2022-09-02T05:06:17.372Z,98420.44
2022-09-02T05:09:38.924Z,98426.50
2022-09-02T05:12:46.312Z,98419.63
2022-09-02T05:15:52.701Z,98429.00
2022-09-02T05:19:14.678Z,98413.00
2022-09-02T05:22:29.672Z,98415.03
2022-09-02T05:25:40.510Z,98422.13
2022-09-02T05:28:47.641Z,98422.00
2022-09-02T05:31:53.908Z,98420.84
2022-09-02T05:35:04.660Z,98419.53
2022-09-02T05:38:12.219Z,98421.13
2022-09-02T05:41:26.122Z,98407.22
2022-09-02T05:44:36.146Z,98417.72
2022-09-02T05:47:43.205Z,98412.66
2022-09-02T05:50:57.625Z,98417.88
2022-09-02T05:54:18.950Z,98421.03
2022-09-02T05:57:27.424Z,98422.63
2022-09-02T06:00:42.339Z,98419.91
2022-09-02T06:03:50.695Z,98418.88
2022-09-02T06:06:59.067Z,98423.81
2022-09-02T06:10:17.423Z,98429.34
2022-09-02T06:13:45.892Z,98423.13
2022-09-02T06:16:54.296Z,98430.75
2022-09-02T06:20:10.822Z,98425.53
2022-09-02T06:23:22.392Z,98432.13
2022-09-02T06:26:28.203Z,98432.78
2022-09-02T06:29:35.244Z,98428.97
2022-09-02T06:32:40.876Z,98430.25
2022-09-02T06:35:49.757Z,98436.63
2022-09-02T06:39:03.047Z,98432.38
2022-09-02T06:42:11.668Z,98434.88
2022-09-02T06:45:26.487Z,98435.41
2022-09-02T06:48:34.362Z,98433.03
2022-09-02T06:51:43.959Z,98430.81
2022-09-02T06:54:55.695Z,98436.00
2022-09-02T06:58:01.312Z,98435.56
2022-09-02T07:01:29.147Z,98437.19
2022-09-02T07:04:53.152Z,98436.72
2022-09-02T07:08:02.087Z,98436.69
2022-09-02T07:11:22.436Z,98442.75
2022-09-02T07:14:30.880Z,98449.34
2022-09-02T07:17:39.365Z,98442.22
2022-09-02T07:20:50.635Z,98450.56
2022-09-02T07:23:56.940Z,98439.81
2022-09-02T07:27:06.108Z,98440.88
2022-09-02T07:30:15.261Z,98446.72
2022-09-02T07:33:24.077Z,98444.44
2022-09-02T07:36:31.514Z,98450.16
2022-09-02T07:39:38.460Z,98447.44
2022-09-02T07:42:47.558Z,98448.03
2022-09-02T07:45:57.518Z,98451.44
2022-09-02T07:49:11.129Z,98441.94
2022-09-02T07:52:17.188Z,98454.78
2022-09-02T07:55:31.237Z,98449.34
2022-09-02T07:58:40.958Z,98450.63
2022-09-02T08:01:48.447Z,98446.72
2022-09-02T08:04:55.716Z,98451.44
2022-09-02T08:08:03.124Z,98444.28
2022-09-02T08:11:09.489Z,98439.13
2022-09-02T08:14:29.582Z,98434.84
2022-09-02T08:17:35.943Z,98439.63
2022-09-02T08:20:41.838Z,98440.91
2022-09-02T08:23:50.420Z,98435.84
2022-09-02T08:26:56.129Z,98443.84
2022-09-02T08:30:10.526Z,98435.34
2022-09-02T08:33:30.181Z,98433.88
2022-09-02T08:36:48.944Z,98436.53
2022-09-02T08:40:03.789Z,98441.03
2022-09-02T08:43:38.560Z,98438.97
2022-09-02T08:46:47.273Z,98427.72
2022-09-02T08:50:00.873Z,98430.31
2022-09-02T08:53:31.569Z,98431.50
2022-09-02T08:56:41.033Z,98435.56
2022-09-02T08:59:48.656Z,98424.56
2022-09-02T09:03:23.063Z,98419.69
2022-09-02T09:06:57.142Z,98409.56
2022-09-02T09:10:28.681Z,98414.72
2022-09-02T09:14:23.568Z,98408.03
2022-09-02T09:17:40.548Z,98412.91
2022-09-02T09:20:53.253Z,98404.53
2022-09-02T09:24:24.631Z,98407.75
2022-09-02T09:27:30.216Z,98407.47
2022-09-02T09:30:35.838Z,98402.38
2022-09-02T09:33:41.933Z,98407.41
2022-09-02T09:36:57.145Z,98415.03
2022-09-02T09:40:09.778Z,98404.09
2022-09-02T09:43:18.229Z,98406.03
2022-09-02T09:46:31.233Z,98405.47
2022-09-02T09:49:37.045Z,98409.00
2022-09-02T09:52:46.025Z,98404.88
2022-09-02T09:56:01.892Z,98401.56
2022-09-02T09:59:32.307Z,98402.06
2022-09-02T10:02:39.367Z,98401.50
2022-09-02T10:05:45.605Z,98393.81
2022-09-02T10:09:01.580Z,98404.53
2022-09-02T10:12:10.485Z,98389.09
2022-09-02T10:15:22.865Z,98391.44
2022-09-02T10:18:43.219Z,98400.09
2022-09-02T10:22:39.497Z,98391.59
2022-09-02T10:30:05.257Z,98383.03
2022-09-02T10:33:39.537Z,98379.84
2022-09-02T10:37:15.014Z,98371.19
2022-09-02T10:40:39.123Z,98371.97
2022-09-02T10:44:15.542Z,98371.16
2022-09-02T10:47:39.191Z,98382.31
2022-09-02T10:51:08.305Z,98369.94
2022-09-02T10:54:48.611Z,98370.94
2022-09-02T10:58:03.468Z,98364.19
2022-09-02T11:01:27.285Z,98364.03
2022-09-02T11:04:46.346Z,98355.81
2022-09-02T11:08:04.610Z,98349.16
2022-09-02T11:11:21.856Z,98351.53
2022-09-02T11:14:47.557Z,98347.34
2022-09-02T11:18:17.503Z,98359.25
2022-09-02T11:21:46.718Z,98358.75
2022-09-02T11:25:07.594Z,98360.56
2022-09-02T11:28:36.322Z,98356.22
2022-09-02T11:31:54.939Z,98355.19
2022-09-02T11:35:13.189Z,98347.94
2022-09-02T11:38:41.902Z,98351.31
2022-09-02T11:42:09.698Z,98351.69
2022-09-02T11:45:57.744Z,98350.13
2022-09-02T11:49:49.111Z,98352.13
2022-09-02T11:53:21.104Z,98365.75
2022-09-02T11:56:39.983Z,98358.81
2022-09-02T12:00:32.655Z,98358.22
2022-09-02T12:03:58.666Z,98356.47
2022-09-02T12:07:29.972Z,98354.97
2022-09-02T12:11:06.907Z,98348.03
2022-09-02T12:14:35.963Z,98340.09
2022-09-02T12:18:12.610Z,98333.22
2022-09-02T12:21:23.346Z,98336.97
2022-09-02T12:24:29.262Z,98324.50
2022-09-02T12:27:42.831Z,98327.44
2022-09-02T12:31:18.104Z,98317.00
2022-09-02T12:34:59.532Z,98314.31
2022-09-02T12:38:29.715Z,98314.09
2022-09-02T12:41:47.740Z,98306.66
2022-09-02T12:45:13.134Z,98302.91
2022-09-02T12:48:38.538Z,98298.84
2022-09-02T12:52:02.789Z,98299.75
2022-09-02T12:55:21.705Z,98299.72
2022-09-02T12:58:29.705Z,98300.00
2022-09-02T13:05:40.532Z,98287.69
2022-09-02T13:09:34.578Z,98283.56
2022-09-02T13:13:28.614Z,98279.06
2022-09-02T13:16:51.819Z,98284.97
2022-09-02T13:20:44.710Z,98290.22
2022-09-02T13:24:40.886Z,98289.88
2022-09-02T13:28:39.171Z,98291.47
2022-09-02T13:32:05.272Z,98293.47
2022-09-02T13:35:24.038Z,98280.09
2022-09-02T13:38:33.589Z,98285.97
2022-09-02T13:41:39.137Z,98289.84
2022-09-02T13:44:44.745Z,98278.56
2022-09-02T13:47:58.139Z,98291.94
2022-09-02T13:51:16.412Z,98281.56
2022-09-02T13:54:35.206Z,98287.06
2022-09-02T13:57:41.935Z,98273.69
2022-09-02T14:00:49.844Z,98272.34
2022-09-02T14:04:02.097Z,98269.03
2022-09-02T14:07:12.003Z,98273.94
2022-09-02T14:10:23.510Z,98268.13
2022-09-02T14:13:29.697Z,98266.00
2022-09-02T14:16:39.281Z,98270.31
2022-09-02T14:19:49.155Z,98271.78
2022-09-02T14:23:10.917Z,98265.63
2022-09-02T14:26:31.768Z,98267.63
2022-09-02T14:29:48.602Z,98264.94
2022-09-02T14:33:39.644Z,98269.66
2022-09-02T14:36:45.478Z,98263.34
2022-09-02T14:40:11.737Z,98262.84
2022-09-02T14:43:20.390Z,98260.34
2022-09-02T14:46:37.370Z,98254.16
2022-09-02T14:49:55.745Z,98260.81
2022-09-02T14:53:14.661Z,98256.31
2022-09-02T14:56:48.778Z,98248.59
2022-09-02T14:59:56.193Z,98253.47
2022-09-02T15:03:02.406Z,98251.22
2022-09-02T15:06:17.722Z,98253.72
2022-09-02T15:09:31.705Z,98260.00
2022-09-02T15:12:45.670Z,98249.53
2022-09-02T15:15:53.180Z,98249.75
2022-09-02T15:18:59.553Z,98249.88
2022-09-02T15:22:14.255Z,98251.28
2022-09-02T15:25:32.216Z,98253.38
2022-09-02T15:28:41.139Z,98246.19
2022-09-02T15:31:46.677Z,98257.72
2022-09-02T15:34:52.407Z,98252.53
2022-09-02T15:38:08.817Z,98248.66
2022-09-02T15:41:17.947Z,98250.56
2022-09-02T15:44:26.709Z,98248.94
2022-09-02T15:47:32.651Z,98248.19
2022-09-02T15:50:38.258Z,98246.78
2022-09-02T15:53:49.297Z,98245.63
2022-09-02T15:57:00.339Z,98252.78
2022-09-02T16:00:11.505Z,98240.47
2022-09-02T16:03:25.808Z,98247.84
2022-09-02T16:06:32.085Z,98250.88
2022-09-02T16:09:40.435Z,98243.00
2022-09-02T16:12:46.063Z,98243.16
2022-09-02T16:15:53.981Z,98245.09
2022-09-02T16:19:00.183Z,98242.66
2022-09-02T16:22:05.908Z,98239.75
2022-09-02T16:25:15.786Z,98240.88
2022-09-02T16:28:22.285Z,98243.00
2022-09-02T16:31:31.962Z,98244.19
2022-09-02T16:34:37.579Z,98236.19
2022-09-02T16:37:43.135Z,98242.25
2022-09-02T16:40:57.730Z,98236.88
2022-09-02T16:44:11.922Z,98234.41
2022-09-02T16:47:17.509Z,98248.13
2022-09-02T16:50:23.570Z,98249.75
2022-09-02T16:53:29.349Z,98239.13
2022-09-02T16:56:43.420Z,98243.34
2022-09-02T16:59:49.633Z,98244.16
2022-09-02T17:02:55.292Z,98237.56
2022-09-02T17:06:01.693Z,98235.69
2022-09-02T17:09:09.199Z,98240.06
2022-09-02T17:12:28.434Z,98234.91
2022-09-02T17:15:36.803Z,98231.88
2022-09-02T17:18:42.369Z,98225.03
2022-09-02T17:21:51.179Z,98220.06
2022-09-02T17:24:56.758Z,98226.16
2022-09-02T17:28:05.813Z,98232.47
2022-09-02T17:31:22.048Z,98231.88
2022-09-02T17:34:27.802Z,98229.06
2022-09-02T17:37:37.592Z,98239.69
2022-09-02T17:40:55.685Z,98225.16
2022-09-02T17:44:08.277Z,98237.34
2022-09-02T17:47:20.229Z,98238.38
2022-09-02T17:50:29.295Z,98227.50
2022-09-02T17:53:36.363Z,98235.38
2022-09-02T17:57:23.862Z,98235.78
2022-09-02T18:00:32.376Z,98241.16
2022-09-02T18:04:07.778Z,98239.38
2022-09-02T18:07:34.275Z,98242.44
2022-09-02T18:10:58.065Z,98246.59
2022-09-02T18:14:25.673Z,98244.75
2022-09-02T18:17:40.045Z,98239.47
2022-09-02T18:20:56.813Z,98247.34
2022-09-02T18:24:27.870Z,98246.97
2022-09-02T18:27:53.711Z,98246.84
2022-09-02T18:31:23.412Z,98252.31
2022-09-02T18:34:57.750Z,98258.75
2022-09-02T18:38:17.058Z,98264.13
2022-09-02T18:41:52.370Z,98257.06
2022-09-02T18:45:12.693Z,98259.38
2022-09-02T18:48:27.585Z,98266.75
2022-09-02T18:51:49.395Z,98263.69
2022-09-02T18:55:15.374Z,98253.38
2022-09-02T18:58:39.297Z,98248.00
2022-09-02T19:01:56.588Z,98256.69
2022-09-02T19:05:07.372Z,98255.47
2022-09-02T19:08:40.630Z,98250.72
2022-09-02T19:11:48.410Z,98255.91
2022-09-02T19:14:54.339Z,98251.78
2022-09-02T19:18:20.853Z,98253.66
2022-09-02T19:22:04.821Z,98248.50
2022-09-02T19:25:29.214Z,98252.63
2022-09-02T19:28:35.301Z,98261.50
2022-09-02T19:31:46.863Z,98251.19
2022-09-02T19:34:53.144Z,98256.16
2022-09-02T19:37:59.603Z,98256.56
2022-09-02T19:41:08.191Z,98257.38
2022-09-02T19:44:15.743Z,98258.81
2022-09-02T19:48:05.023Z,98258.63
2022-09-02T19:50:51.109Z,98258.00
2022-09-02T19:53:57.354Z,98255.91
2022-09-02T19:57:05.721Z,98264.81
2022-09-02T20:00:15.611Z,98261.88
2022-09-02T20:03:22.809Z,98258.38
2022-09-02T20:06:30.009Z,98254.47
2022-09-02T20:09:35.739Z,98255.91
2022-09-02T20:12:51.075Z,98258.16
2022-09-02T20:16:00.278Z,98250.91
2022-09-02T20:19:06.104Z,98250.06
2022-09-02T20:22:14.331Z,98252.53
2022-09-02T20:25:20.099Z,98248.19
2022-09-02T20:28:36.821Z,98245.47
2022-09-02T20:32:09.119Z,98249.16
2022-09-02T20:35:53.491Z,98253.88
2022-09-02T20:39:35.316Z,98259.44
2022-09-02T20:43:38.147Z,98256.53
2022-09-02T20:47:16.605Z,98254.03
2022-09-02T20:50:50.620Z,98270.09
2022-09-02T20:54:20.138Z,98258.56
2022-09-02T20:58:13.682Z,98269.47
2022-09-02T21:01:31.151Z,98254.41
2022-09-02T21:04:45.016Z,98261.00
2022-09-02T21:08:02.726Z,98270.50
2022-09-02T21:11:14.597Z,98266.16
2022-09-02T21:14:31.155Z,98269.66
2022-09-02T21:17:52.509Z,98266.56
2022-09-02T21:21:09.851Z,98271.69
2022-09-02T21:24:26.349Z,98272.88
2022-09-02T21:27:45.467Z,98269.72
2022-09-02T21:31:05.143Z,98265.34
2022-09-02T21:34:27.790Z,98265.47
2022-09-02T21:37:39.926Z,98261.59
2022-09-02T21:41:07.009Z,98258.81
2022-09-02T21:44:26.161Z,98252.56
2022-09-02T21:47:44.181Z,98260.97
2022-09-02T21:51:05.043Z,98258.88
2022-09-02T21:54:44.575Z,98254.16
2022-09-02T21:58:17.933Z,98257.25
2022-09-02T22:01:44.558Z,98264.19
2022-09-02T22:05:10.534Z,98266.66
2022-09-02T22:08:34.183Z,98262.13
2022-09-02T22:11:48.957Z,98264.13
2022-09-02T22:15:08.001Z,98261.41
2022-09-02T22:18:33.645Z,98260.31
2022-09-02T22:21:49.988Z,98254.75
2022-09-02T22:24:58.572Z,98256.53
2022-09-02T22:28:16.045Z,98259.31
2022-09-02T22:31:28.696Z,98260.59
2022-09-02T22:34:46.384Z,98262.88
2022-09-02T22:38:06.228Z,98264.72
2022-09-02T22:41:29.251Z,98260.06
2022-09-02T22:44:59.291Z,98263.47
2022-09-02T22:48:30.857Z,98253.72
2022-09-02T22:52:03.160Z,98253.19
2022-09-02T22:55:11.374Z,98251.75
2022-09-02T22:58:48.906Z,98246.78
2022-09-02T23:02:11.441Z,98246.56
2022-09-02T23:05:53.303Z,98243.25
2022-09-02T23:09:08.670Z,98238.94
2022-09-02T23:12:34.485Z,98239.97
2022-09-02T23:16:02.369Z,98237.47
2022-09-02T23:19:25.986Z,98238.03
2022-09-02T23:22:51.683Z,98233.81
2022-09-02T23:26:21.067Z,98238.03
2022-09-02T23:29:28.923Z,98235.75
2022-09-02T23:33:10.965Z,98236.78
2022-09-02T23:36:35.526Z,98233.38
2022-09-02T23:40:06.219Z,98230.22
2022-09-02T23:43:15.736Z,98235.56
2022-09-02T23:46:43.952Z,98233.09
2022-09-02T23:50:11.604Z,98230.22
2022-09-02T23:53:27.604Z,98229.78
2022-09-02T23:56:58.283Z,98226.69
